Terminal Aerodrome Forecast
Issued by NWS

Home | Current Version | Previous Version | Text Only | Print | Product List | Glossary On
Versions: 1 2 3 4 5 6 7 8 9 10 11 12 13 14
000
FTAK31 PAJN 181100
TAFASI
TAF
PASI 181137Z 1812/1912 12006KT 6SM -RA BR FEW010 BKN015 OVC025
     FM181600 14008KT P6SM VCSH FEW020 BKN030 OVC050
     FM190000 12008KT P6SM SCT035 SCT060 OVC100
     FM190900 09008KT P6SM VCSH BKN035 OVC050 WS020/14040KT=

USA.gov is the U.S. government's official web portal to all federal, state and local government web resources and services.